WetterOnline ( https://www.wetteronline.de )

Wetter aktuell Coburg

Aktuelles Wetter: Coburg (323m)

6-stündlich | Neueste Meldungen
Ortszeit Temperatur Wetter
So, 25.09. 2:00 9.2° C wolkig
Sa, 24.09. 20:00 12.7° C bedeckt
Sa, 24.09. 14:00 16.3° C wolkig
Sa, 24.09. 8:00 7.3° C bedeckt
Sa, 24.09. 2:00 7.7° C bedeckt
Fr, 23.09. 20:00 10.5° C bewölkt
Fr, 23.09. 14:00 15.1° C wolkig
Fr, 23.09. 8:00 5.0° C wolkig
Ortszeit Temperatur Wetter
So, 25.09. 3:00 9.1° C wolkig
So, 25.09. 2:50 9.1° C wolkig
So, 25.09. 2:40 9.3° C bewölkt
So, 25.09. 2:30 9.1° C bewölkt
So, 25.09. 2:20 9.1° C bewölkt
So, 25.09. 2:10 9.3° C bewölkt
So, 25.09. 2:00 9.2° C wolkig
So, 25.09. 1:30 9.9° C bedeckt
So, 25.09. 1:00 9.8° C bedeckt
So, 25.09. 0:30 10.0° C bedeckt
So, 25.09. 0:00 9.9° C wolkig
Ortszeit Relative Feuchte Sichtweite
So, 25.09. 2:00 90% 30 km
Sa, 24.09. 20:00 78% 22 km
Sa, 24.09. 14:00 55% 60 km
Sa, 24.09. 8:00 88% 50 km
Sa, 24.09. 2:00 85% 55 km
Fr, 23.09. 20:00 73% >70 km
Fr, 23.09. 14:00 47% 60 km
Fr, 23.09. 8:00 87% 65 km
Ortszeit Relative Feuchte Sichtweite
So, 25.09. 3:00 90% 24 km
So, 25.09. 2:50 90% -
So, 25.09. 2:40 89% -
So, 25.09. 2:30 89% 24 km
So, 25.09. 2:20 89% -
So, 25.09. 2:10 90% -
So, 25.09. 2:00 90% 30 km
So, 25.09. 1:30 87% 26 km
So, 25.09. 1:00 88% 28 km
So, 25.09. 0:30 87% 40 km
So, 25.09. 0:00 87% 24 km
Ortszeit Niederschlagsmenge Niederschlagsart
So, 25.09. 2:00 0.0 l/m2 in 6 Std. -
Sa, 24.09. 20:00 0.0 l/m2 in 12 Std. -
Sa, 24.09. 14:00 0.0 l/m2 in 6 Std. -
Sa, 24.09. 8:00 0.0 l/m2 in 12 Std. -
Sa, 24.09. 2:00 0.0 l/m2 in 6 Std. -
Fr, 23.09. 20:00 0.0 l/m2 in 12 Std. -
Fr, 23.09. 14:00 0.0 l/m2 in 6 Std. -
Fr, 23.09. 8:00 0.0 l/m2 in 12 Std. -
Ortszeit Niederschlagsmenge Niederschlagsart
So, 25.09. 3:00 0.0 l/m2 in 1 Std. -
So, 25.09. 2:50 keine Meldung -
So, 25.09. 2:40 keine Meldung -
So, 25.09. 2:30 0.0 l/m2 in 1 Std. -
So, 25.09. 2:20 keine Meldung -
So, 25.09. 2:10 keine Meldung -
So, 25.09. 2:00 0.0 l/m2 in 1 Std. -
So, 25.09. 1:30 0.0 l/m2 in 1 Std. -
So, 25.09. 1:00 0.0 l/m2 in 1 Std. -
So, 25.09. 0:30 0.0 l/m2 in 1 Std. -
So, 25.09. 0:00 0.0 l/m2 in 1 Std. -
Ortszeit Stärke Spitze Richtung
km/h Bft. km/h Grad Sektor
So, 25.09. 2:00 4 1 14 70° O
Sa, 24.09. 20:00 7 2 18 30° NO
Sa, 24.09. 14:00 6 1 15 260° W
Sa, 24.09. 8:00 11 2 18 50° NO
Sa, 24.09. 2:00 11 2 18 50° NO
Fr, 23.09. 20:00 7 2 24 20° N
Fr, 23.09. 14:00 11 2 22 180° S
Fr, 23.09. 8:00 13 3 22 60° NO
Ortszeit Stärke Spitze Richtung
km/h Bft. km/h Grad Sektor
So, 25.09. 3:00 9 2 13 50° NO
So, 25.09. 2:50 9 2 - 50° NO
So, 25.09. 2:40 9 2 - 50° NO
So, 25.09. 2:30 7 2 14 50° NO
So, 25.09. 2:20 7 2 - 50° NO
So, 25.09. 2:10 9 2 - 50° NO
So, 25.09. 2:00 4 1 11 70° O
So, 25.09. 1:30 9 2 11 30° NO
So, 25.09. 1:00 7 2 11 30° NO
So, 25.09. 0:30 7 2 11 350° N
So, 25.09. 0:00 9 2 13 20° N
Ortszeit Untergrenze Bedeckung Gattung
total tief tief mittel hoch
So, 25.09. 2:00 3000 m 6/8 6/8 - - -
Sa, 24.09. 20:00 2700 m 8/8 8/8 - - -
Sa, 24.09. 14:00 4200 m 8/8 8/8 - - -
Sa, 24.09. 8:00 3300 m 8/8 8/8 - - -
Sa, 24.09. 2:00 4500 m 8/8 8/8 - - -
Fr, 23.09. 20:00 6000 m 8/8 7/8 - - -
Fr, 23.09. 14:00 6300 m 8/8 7/8 - - -
Fr, 23.09. 8:00 9000 m 8/8 0/8 - - -
Ortszeit Bedeckungsgrad in Achtel und Wolkenuntergrenze
So, 25.09. 3:00 1(2700m) 7(5100m) 7(5700m)
So, 25.09. 2:50 1(2700m) 7(5100m) 7(5700m)
So, 25.09. 2:40 7
So, 25.09. 2:30 2(3000m) 7(5400m)
So, 25.09. 2:20 2(3000m) 7(5400m)
So, 25.09. 2:10 7
So, 25.09. 2:00 6(3000m)
So, 25.09. 1:30 8(3000m) 8(3900m)
So, 25.09. 1:00 8(2700m)
So, 25.09. 0:30 8(2700m)
So, 25.09. 0:00 3(3000m) 6(3900m)
Ortszeit Luftdruck NN (hPa) Tendenz (hPa in 3 Std.)
So, 25.09. 2:00 1014 + 0,1
Sa, 24.09. 20:00 1013 + 0,4
Sa, 24.09. 14:00 1013 - 0,5
Sa, 24.09. 8:00 1014 - 0,2
Sa, 24.09. 2:00 1015 - 0,8
Fr, 23.09. 20:00 1016 - 0,7
Fr, 23.09. 14:00 1018 - 1,5
Fr, 23.09. 8:00 1021 - 0,5
Ortszeit Luftdruck NN (hPa) Tendenz (hPa in 3 Std.)
So, 25.09. 3:00 1013 - 0,4
So, 25.09. 2:50 1013 keine Meldung
So, 25.09. 2:40 1013 keine Meldung
So, 25.09. 2:30 1014 - 0,2
So, 25.09. 2:20 1014 keine Meldung
So, 25.09. 2:10 1014 keine Meldung
So, 25.09. 2:00 1014 + 0,1
So, 25.09. 1:30 1013 0,0
So, 25.09. 1:00 1014 + 0,1
So, 25.09. 0:30 1014 + 0,2
So, 25.09. 0:00 1014 + 0,2
Ortszeit Schneehöhe (cm)
So, 25.09. 2:00 0
Sa, 24.09. 20:00 0
Sa, 24.09. 14:00 0
Sa, 24.09. 8:00 0
Sa, 24.09. 2:00 0
Fr, 23.09. 20:00 0
Fr, 23.09. 14:00 0
Fr, 23.09. 8:00 0
Ortszeit Schneehöhe (cm)
So, 25.09. 3:00 0
So, 25.09. 2:50 0
So, 25.09. 2:40 0
So, 25.09. 2:30 0
So, 25.09. 2:20 0
So, 25.09. 2:10 0
So, 25.09. 2:00 0
So, 25.09. 1:30 0
So, 25.09. 1:00 0
So, 25.09. 0:30 0
So, 25.09. 0:00 0
Link zu dieser Seite / Seite empfehlen

Das Wetter in ...